createdAt,value
2018-06-10T00:00:34.202Z,25.90
2018-06-10T00:03:02.501Z,25.90
2018-06-10T00:05:30.875Z,25.90
2018-06-10T00:07:59.223Z,25.90
2018-06-10T00:10:27.591Z,25.90
2018-06-10T00:12:55.916Z,25.80
2018-06-10T00:15:24.409Z,25.80
2018-06-10T00:17:52.819Z,25.80
2018-06-10T00:20:21.231Z,25.80
2018-06-10T00:22:49.586Z,25.80
2018-06-10T00:25:18.046Z,25.70
2018-06-10T00:27:46.459Z,25.70
2018-06-10T00:30:14.881Z,25.70
2018-06-10T00:32:43.200Z,25.70
2018-06-10T00:35:11.596Z,25.60
2018-06-10T00:37:40.004Z,25.60
2018-06-10T00:40:08.479Z,25.50
2018-06-10T00:42:36.977Z,25.50
2018-06-10T00:45:05.960Z,25.50
2018-06-10T00:47:34.411Z,25.40
2018-06-10T00:50:03.860Z,25.40
2018-06-10T00:52:32.242Z,25.40
2018-06-10T00:55:00.687Z,25.30
2018-06-10T00:57:29.013Z,25.30
2018-06-10T00:59:57.388Z,25.20
2018-06-10T01:02:26.375Z,25.20
2018-06-10T01:04:54.786Z,25.20
2018-06-10T01:07:23.286Z,25.20
2018-06-10T01:09:51.810Z,25.20
2018-06-10T01:12:20.229Z,25.20
2018-06-10T01:14:48.573Z,25.10
2018-06-10T01:17:16.951Z,25.10
2018-06-10T01:19:45.499Z,25.10
2018-06-10T01:22:13.949Z,25.10
2018-06-10T01:24:42.464Z,25.10
2018-06-10T01:27:10.837Z,25.10
2018-06-10T01:29:39.247Z,25.10
2018-06-10T01:32:07.775Z,25.00
2018-06-10T01:34:36.188Z,25.00
2018-06-10T01:37:04.658Z,25.00
2018-06-10T01:39:32.952Z,25.00
2018-06-10T01:42:01.316Z,25.00
2018-06-10T01:44:29.675Z,25.00
2018-06-10T01:46:58.154Z,25.00
2018-06-10T01:49:26.499Z,24.90
2018-06-10T01:51:54.880Z,24.90
2018-06-10T01:54:23.232Z,25.00
2018-06-10T01:56:51.555Z,24.90
2018-06-10T01:59:22.811Z,24.90
2018-06-10T02:01:51.136Z,24.90
2018-06-10T02:04:19.509Z,24.90
2018-06-10T02:06:47.832Z,24.90
2018-06-10T02:09:16.147Z,24.90
2018-06-10T02:11:44.527Z,24.90
2018-06-10T02:14:12.819Z,24.90
2018-06-10T02:16:41.165Z,24.80
2018-06-10T02:19:09.533Z,24.80
2018-06-10T02:21:37.889Z,24.80
2018-06-10T02:24:06.256Z,24.80
2018-06-10T02:26:34.703Z,24.80
2018-06-10T02:29:03.016Z,24.70
2018-06-10T02:31:31.510Z,24.70
2018-06-10T02:34:00.117Z,24.70
2018-06-10T02:36:28.492Z,24.70
2018-06-10T02:38:57.056Z,24.60
2018-06-10T02:41:25.565Z,24.60
2018-06-10T02:43:53.967Z,24.60
2018-06-10T02:46:22.339Z,24.60
2018-06-10T02:48:50.669Z,24.60
2018-06-10T02:51:19.037Z,24.50
2018-06-10T02:53:47.428Z,24.50
2018-06-10T02:56:15.846Z,24.40
2018-06-10T02:58:44.209Z,24.50
2018-06-10T03:01:12.597Z,24.40
2018-06-10T03:03:41.187Z,24.40
2018-06-10T03:06:09.590Z,24.40
2018-06-10T03:08:38.053Z,24.40
2018-06-10T03:11:06.494Z,24.30
2018-06-10T03:13:34.907Z,24.30
2018-06-10T03:16:03.380Z,24.30
2018-06-10T03:18:31.781Z,24.40
2018-06-10T03:21:00.239Z,24.40
2018-06-10T03:23:28.718Z,24.40
2018-06-10T03:25:57.096Z,24.40
2018-06-10T03:28:25.555Z,24.40
2018-06-10T03:30:53.997Z,24.40
2018-06-10T03:33:22.350Z,24.40
2018-06-10T03:35:50.692Z,24.40
2018-06-10T03:38:19.111Z,24.40
2018-06-10T03:40:47.387Z,24.40
2018-06-10T03:43:15.791Z,24.40
2018-06-10T03:45:44.130Z,24.40
2018-06-10T03:48:12.457Z,24.40
2018-06-10T03:50:40.818Z,24.40
2018-06-10T03:53:09.285Z,24.40
2018-06-10T03:55:37.763Z,24.40
2018-06-10T03:58:06.869Z,24.40
2018-06-10T04:00:35.206Z,24.40
2018-06-10T04:03:03.576Z,24.30
2018-06-10T04:05:31.879Z,24.30
2018-06-10T04:08:00.352Z,24.30
2018-06-10T04:10:28.734Z,24.30
2018-06-10T04:12:57.063Z,24.30
2018-06-10T04:15:25.444Z,24.30
2018-06-10T04:18:57.161Z,24.20
2018-06-10T04:21:25.578Z,24.20
2018-06-10T04:23:54.050Z,24.20
2018-06-10T04:26:22.355Z,24.20
2018-06-10T04:28:50.776Z,24.10
2018-06-10T04:31:19.085Z,24.20
2018-06-10T04:33:47.473Z,24.20
2018-06-10T04:36:15.876Z,24.20
2018-06-10T04:38:44.268Z,24.20
2018-06-10T04:41:12.725Z,24.20
2018-06-10T04:46:09.614Z,24.30
2018-06-10T04:48:38.213Z,24.30
2018-06-10T04:51:06.701Z,24.30
2018-06-10T04:53:35.109Z,24.40
2018-06-10T04:56:03.586Z,24.40
2018-06-10T04:58:31.903Z,24.50
2018-06-10T05:01:00.399Z,24.60
2018-06-10T05:03:28.882Z,24.70
2018-06-10T05:05:57.252Z,24.70
2018-06-10T05:08:25.586Z,24.80
2018-06-10T05:10:54.159Z,24.90
2018-06-10T05:13:22.507Z,25.00
2018-06-10T05:15:50.885Z,25.10
2018-06-10T05:18:19.368Z,25.20
2018-06-10T05:20:47.896Z,25.20
2018-06-10T05:23:16.351Z,25.40
2018-06-10T05:25:45.000Z,25.40
2018-06-10T05:28:13.581Z,25.40
2018-06-10T05:30:42.025Z,25.50
2018-06-10T05:33:10.448Z,25.50
2018-06-10T05:35:39.100Z,25.50
2018-06-10T05:38:07.877Z,25.50
2018-06-10T05:40:36.719Z,25.60
2018-06-10T05:43:05.572Z,25.60
2018-06-10T05:45:34.332Z,25.60
2018-06-10T05:48:02.801Z,25.60
2018-06-10T05:50:31.138Z,25.70
2018-06-10T05:52:59.575Z,25.70
2018-06-10T05:55:28.219Z,25.80
2018-06-10T05:57:59.415Z,25.90
2018-06-10T06:00:27.865Z,25.90
2018-06-10T06:02:56.268Z,26.00
2018-06-10T06:05:24.792Z,26.00
2018-06-10T06:07:53.183Z,26.10
2018-06-10T06:10:21.644Z,26.10
2018-06-10T06:12:50.046Z,26.10
2018-06-10T06:15:18.507Z,26.20
2018-06-10T06:17:47.380Z,26.20
2018-06-10T06:20:15.792Z,26.20
2018-06-10T06:25:12.630Z,26.30
2018-06-10T06:27:41.020Z,26.40
2018-06-10T06:30:09.379Z,26.40
2018-06-10T06:32:37.788Z,26.50
2018-06-10T06:35:06.360Z,26.60
2018-06-10T06:37:34.801Z,26.60
2018-06-10T06:40:03.468Z,26.70
2018-06-10T06:42:32.061Z,26.80
2018-06-10T06:45:00.410Z,26.90
2018-06-10T06:47:28.871Z,26.90
2018-06-10T06:49:57.664Z,26.90
2018-06-10T06:52:26.115Z,26.90
2018-06-10T06:54:54.667Z,27.00
2018-06-10T06:57:23.153Z,27.00
2018-06-10T06:59:51.611Z,27.10
2018-06-10T07:02:20.523Z,27.20
2018-06-10T07:04:49.207Z,27.20
2018-06-10T07:07:17.661Z,27.30
2018-06-10T07:12:14.403Z,27.50
2018-06-10T07:14:43.475Z,27.60
2018-06-10T07:17:12.315Z,27.60
2018-06-10T07:19:40.881Z,27.70
2018-06-10T07:22:09.756Z,27.80
2018-06-10T07:24:39.263Z,27.80
2018-06-10T07:27:07.821Z,27.90
2018-06-10T07:29:36.348Z,28.00
2018-06-10T07:32:05.980Z,28.10
2018-06-10T07:34:34.427Z,28.10
2018-06-10T07:37:02.971Z,28.20
2018-06-10T07:39:31.448Z,28.30
2018-06-10T07:42:00.302Z,28.50
2018-06-10T07:44:29.122Z,28.60
2018-06-10T07:46:57.855Z,28.80
2018-06-10T07:49:26.451Z,28.90
2018-06-10T07:51:54.944Z,29.00
2018-06-10T07:54:23.409Z,29.10
2018-06-10T07:56:52.012Z,29.10
2018-06-10T07:59:20.499Z,29.20
2018-06-10T08:01:49.109Z,29.30
2018-06-10T08:04:17.487Z,29.40
2018-06-10T08:06:45.905Z,29.40
2018-06-10T08:09:14.885Z,29.50
2018-06-10T08:11:43.323Z,29.60
2018-06-10T08:14:12.105Z,29.70
2018-06-10T08:16:40.838Z,29.90
2018-06-10T08:21:39.852Z,30.20
2018-06-10T08:24:09.476Z,30.50
2018-06-10T08:26:38.040Z,30.80
2018-06-10T08:29:07.816Z,31.10
2018-06-10T08:31:36.234Z,31.70
2018-06-10T08:34:04.898Z,31.90
2018-06-10T08:36:33.410Z,32.30
2018-06-10T08:39:01.808Z,32.90
2018-06-10T08:41:30.259Z,33.30
2018-06-10T08:43:58.656Z,33.80
2018-06-10T08:46:27.056Z,34.30
2018-06-10T08:48:55.575Z,34.70
2018-06-10T08:51:23.939Z,35.00
2018-06-10T08:53:52.663Z,35.10
2018-06-10T08:56:21.579Z,35.20
2018-06-10T08:58:50.032Z,35.10
2018-06-10T09:01:18.713Z,35.10
2018-06-10T09:03:47.304Z,35.10
2018-06-10T09:06:15.875Z,35.00
2018-06-10T09:08:44.310Z,35.30
2018-06-10T09:11:12.656Z,35.40
2018-06-10T09:13:41.060Z,35.50
2018-06-10T09:16:09.843Z,35.70
2018-06-10T09:18:38.313Z,35.60
2018-06-10T09:21:06.760Z,35.60
2018-06-10T09:23:35.431Z,35.50
2018-06-10T09:26:03.747Z,35.70
2018-06-10T09:28:32.223Z,36.00
2018-06-10T09:31:00.804Z,36.20
2018-06-10T09:33:29.285Z,36.60
2018-06-10T09:35:57.618Z,36.80
2018-06-10T09:38:26.000Z,37.20
2018-06-10T09:40:54.619Z,37.60
2018-06-10T09:43:23.419Z,37.90
2018-06-10T09:45:51.784Z,38.10
2018-06-10T09:48:20.343Z,38.40
2018-06-10T09:50:49.458Z,38.70
2018-06-10T09:55:46.001Z,39.40
2018-06-10T09:58:14.928Z,39.80
2018-06-10T10:00:43.547Z,40.30
2018-06-10T10:03:11.979Z,40.70
2018-06-10T10:05:40.464Z,41.20
2018-06-10T10:08:09.442Z,41.60
2018-06-10T10:10:38.206Z,42.00
2018-06-10T10:13:06.653Z,42.30
2018-06-10T10:15:35.098Z,42.50
2018-06-10T10:18:03.920Z,42.50
2018-06-10T10:20:32.325Z,42.40
2018-06-10T10:23:00.721Z,42.10
2018-06-10T10:25:29.218Z,41.90
2018-06-10T10:27:57.869Z,41.80
2018-06-10T10:30:26.229Z,41.90
2018-06-10T10:32:54.635Z,42.00
2018-06-10T10:35:23.037Z,42.00
2018-06-10T10:37:51.437Z,42.00
2018-06-10T10:40:19.869Z,42.00
2018-06-10T10:42:48.363Z,42.10
2018-06-10T10:45:16.789Z,42.30
2018-06-10T10:47:45.272Z,42.60
2018-06-10T10:50:13.880Z,43.00
2018-06-10T10:55:10.692Z,43.90
2018-06-10T10:57:39.133Z,44.30
2018-06-10T11:00:07.589Z,44.70
2018-06-10T11:02:35.964Z,45.00
2018-06-10T11:05:04.331Z,45.30
2018-06-10T11:10:00.804Z,45.80
2018-06-10T11:12:29.395Z,46.00
2018-06-10T11:14:57.968Z,46.20
2018-06-10T11:17:26.352Z,46.50
2018-06-10T11:19:54.713Z,46.70
2018-06-10T11:22:23.117Z,47.00
2018-06-10T11:24:51.511Z,47.20
2018-06-10T11:27:20.054Z,47.40
2018-06-10T11:29:48.478Z,47.50
2018-06-10T11:32:18.860Z,47.60
2018-06-10T11:34:47.788Z,47.60
2018-06-10T11:37:16.976Z,47.70
2018-06-10T11:39:45.570Z,47.90
2018-06-10T11:42:14.397Z,48.10
2018-06-10T11:44:43.596Z,48.30
2018-06-10T11:47:13.321Z,48.60
2018-06-10T11:49:41.995Z,48.80
2018-06-10T11:52:10.664Z,48.90
2018-06-10T11:54:39.624Z,49.10
2018-06-10T11:57:08.133Z,49.20
2018-06-10T11:59:37.005Z,49.20
2018-06-10T12:02:05.783Z,49.20
2018-06-10T12:04:35.583Z,49.20
2018-06-10T12:09:32.632Z,49.20
2018-06-10T12:12:01.039Z,49.20
2018-06-10T12:14:29.595Z,49.40
2018-06-10T12:16:58.168Z,49.50
2018-06-10T12:19:26.583Z,49.60
2018-06-10T12:21:55.429Z,49.70
2018-06-10T12:24:24.519Z,49.90
2018-06-10T12:29:22.394Z,50.00
2018-06-10T12:31:51.529Z,50.10
2018-06-10T12:34:20.178Z,50.10
2018-06-10T12:36:49.091Z,50.10
2018-06-10T12:39:17.684Z,50.10
2018-06-10T12:41:46.448Z,50.10
2018-06-10T12:44:15.085Z,50.10
2018-06-10T12:46:43.915Z,50.10
2018-06-10T12:49:13.262Z,50.00
2018-06-10T12:51:41.839Z,50.00
2018-06-10T12:54:12.222Z,50.00
2018-06-10T12:56:41.657Z,50.00
2018-06-10T12:59:10.250Z,50.00
2018-06-10T13:01:39.551Z,49.90
2018-06-10T13:04:08.485Z,49.90
2018-06-10T13:06:37.584Z,49.80
2018-06-10T13:09:08.392Z,49.70
2018-06-10T13:11:38.676Z,49.60
2018-06-10T13:14:08.098Z,49.70
2018-06-10T13:16:37.277Z,49.70
2018-06-10T13:19:06.455Z,49.70
2018-06-10T13:21:35.517Z,49.80
2018-06-10T13:24:04.494Z,49.90
2018-06-10T13:26:33.700Z,50.00
2018-06-10T13:29:02.369Z,50.10
2018-06-10T13:31:31.077Z,50.20
2018-06-10T13:34:00.208Z,50.40
2018-06-10T13:36:28.799Z,50.50
2018-06-10T13:38:57.917Z,50.50
2018-06-10T13:41:27.110Z,50.60
2018-06-10T13:43:56.208Z,50.70
2018-06-10T13:46:24.767Z,50.80
2018-06-10T13:48:55.288Z,50.80
2018-06-10T13:51:23.780Z,50.90
2018-06-10T13:53:52.336Z,51.00
2018-06-10T13:56:21.992Z,51.20
2018-06-10T13:58:50.541Z,51.30
2018-06-10T14:01:19.079Z,51.40
2018-06-10T14:03:47.856Z,51.20
2018-06-10T14:06:16.577Z,51.20
2018-06-10T14:08:45.085Z,50.90
2018-06-10T14:11:14.376Z,50.70
2018-06-10T14:13:42.875Z,50.50
2018-06-10T14:16:11.281Z,50.50
2018-06-10T14:18:40.889Z,50.50
2018-06-10T14:21:09.398Z,50.50
2018-06-10T14:23:38.907Z,50.50
2018-06-10T14:26:07.353Z,50.50
2018-06-10T14:28:36.122Z,50.50
2018-06-10T14:31:04.679Z,50.20
2018-06-10T14:33:33.087Z,49.90
2018-06-10T14:36:01.540Z,49.40
2018-06-10T14:38:29.884Z,48.70
2018-06-10T14:40:58.289Z,48.20
2018-06-10T14:43:26.748Z,47.50
2018-06-10T14:45:55.359Z,47.10
2018-06-10T14:48:23.905Z,46.50
2018-06-10T14:50:52.413Z,46.00
2018-06-10T14:53:21.019Z,45.60
2018-06-10T14:55:49.509Z,45.30
2018-06-10T14:58:18.034Z,44.80
2018-06-10T15:00:46.400Z,44.40
2018-06-10T15:03:15.093Z,44.00
2018-06-10T15:05:43.505Z,43.70
2018-06-10T15:08:11.934Z,43.40
2018-06-10T15:10:40.509Z,43.10
2018-06-10T15:13:09.151Z,42.80
2018-06-10T15:15:37.651Z,42.60
2018-06-10T15:18:06.481Z,42.40
2018-06-10T15:20:34.986Z,42.20
2018-06-10T15:23:03.468Z,41.90
2018-06-10T15:25:31.838Z,41.70
2018-06-10T15:30:28.509Z,41.20
2018-06-10T15:32:57.036Z,41.00
2018-06-10T15:35:25.726Z,40.90
2018-06-10T15:37:54.103Z,40.70
2018-06-10T15:40:22.563Z,40.50
2018-06-10T15:42:51.944Z,40.40
2018-06-10T15:45:20.281Z,40.30
2018-06-10T15:47:48.683Z,40.10
2018-06-10T15:50:17.135Z,40.00
2018-06-10T15:52:45.516Z,39.90
2018-06-10T15:55:14.131Z,39.70
2018-06-10T15:57:42.693Z,39.60
2018-06-10T16:00:11.151Z,39.50
2018-06-10T16:02:39.652Z,39.30
2018-06-10T16:05:08.080Z,39.20
2018-06-10T16:07:36.656Z,39.00
2018-06-10T16:10:05.172Z,39.00
2018-06-10T16:12:33.669Z,38.80
2018-06-10T16:15:01.983Z,38.70
2018-06-10T16:17:30.393Z,38.50
2018-06-10T16:19:59.013Z,38.40
2018-06-10T16:22:27.464Z,38.20
2018-06-10T16:24:55.876Z,38.00
2018-06-10T16:27:24.300Z,37.80
2018-06-10T16:29:52.624Z,37.70
2018-06-10T16:32:20.978Z,37.60
2018-06-10T16:34:49.356Z,37.50
2018-06-10T16:37:17.810Z,37.40
2018-06-10T16:39:46.244Z,37.30
2018-06-10T16:42:14.577Z,37.30
2018-06-10T16:44:43.045Z,37.20
2018-06-10T16:47:11.480Z,37.10
2018-06-10T16:49:39.864Z,37.10
2018-06-10T16:52:08.257Z,37.00
2018-06-10T16:54:36.725Z,36.90
2018-06-10T16:57:05.380Z,36.80
2018-06-10T16:59:33.946Z,36.80
2018-06-10T17:02:02.424Z,36.70
2018-06-10T17:04:31.005Z,36.60
2018-06-10T17:06:59.397Z,36.50
2018-06-10T17:09:27.842Z,36.50
2018-06-10T17:11:56.380Z,36.30
2018-06-10T17:14:24.885Z,36.30
2018-06-10T17:16:53.256Z,36.20
2018-06-10T17:19:21.783Z,36.10
2018-06-10T17:24:18.740Z,36.00
2018-06-10T17:26:47.389Z,35.90
2018-06-10T17:29:15.807Z,35.80
2018-06-10T17:31:44.357Z,35.80
2018-06-10T17:34:12.952Z,35.70
2018-06-10T17:36:41.439Z,35.60
2018-06-10T17:39:09.987Z,35.50
2018-06-10T17:41:38.448Z,35.40
2018-06-10T17:44:07.936Z,35.40
2018-06-10T17:46:36.568Z,35.30
2018-06-10T17:49:05.251Z,35.20
2018-06-10T17:51:33.744Z,35.20
2018-06-10T17:54:02.158Z,35.10
2018-06-10T17:56:30.561Z,35.10
2018-06-10T17:58:59.203Z,35.00
2018-06-10T18:01:27.638Z,35.00
2018-06-10T18:03:56.060Z,34.90
2018-06-10T18:06:24.575Z,34.90
2018-06-10T18:08:53.060Z,34.80
2018-06-10T18:11:21.829Z,34.80
2018-06-10T18:13:50.420Z,34.70
2018-06-10T18:18:47.389Z,34.60
2018-06-10T18:21:16.248Z,34.50
2018-06-10T18:23:44.899Z,34.50
2018-06-10T18:26:13.653Z,34.40
2018-06-10T18:28:42.228Z,34.30
2018-06-10T18:31:10.956Z,34.30
2018-06-10T18:33:39.715Z,34.20
2018-06-10T18:36:08.440Z,34.10
2018-06-10T18:38:37.095Z,34.00
2018-06-10T18:41:05.660Z,34.00
2018-06-10T18:43:34.468Z,33.90
2018-06-10T18:46:03.242Z,33.80
2018-06-10T18:48:31.827Z,33.80
2018-06-10T18:51:00.262Z,33.70
2018-06-10T18:53:28.885Z,33.60
2018-06-10T18:55:57.323Z,33.60
2018-06-10T18:58:25.772Z,33.50
2018-06-10T19:03:22.582Z,33.30
2018-06-10T19:05:51.080Z,33.30
2018-06-10T19:08:19.565Z,33.20
2018-06-10T19:13:16.748Z,33.10
2018-06-10T19:15:45.685Z,33.00
2018-06-10T19:18:14.271Z,32.90
2018-06-10T19:20:42.853Z,32.90
2018-06-10T19:23:11.503Z,32.80
2018-06-10T19:25:40.198Z,32.80
2018-06-10T19:28:09.218Z,32.70
2018-06-10T19:30:38.362Z,32.60
2018-06-10T19:35:35.391Z,32.50
2018-06-10T19:38:03.858Z,32.40
2018-06-10T19:40:32.489Z,32.30
2018-06-10T19:43:01.139Z,32.30
2018-06-10T19:45:30.041Z,32.20
2018-06-10T19:47:58.662Z,32.20
2018-06-10T19:50:27.269Z,32.10
2018-06-10T19:52:55.669Z,32.10
2018-06-10T19:55:24.513Z,32.00
2018-06-10T19:57:52.983Z,32.00
2018-06-10T20:00:21.375Z,32.00
2018-06-10T20:02:49.929Z,31.90
2018-06-10T20:05:18.391Z,31.90
2018-06-10T20:07:46.901Z,31.80
2018-06-10T20:10:15.564Z,31.80
2018-06-10T20:12:44.340Z,31.70
2018-06-10T20:15:12.969Z,31.70
2018-06-10T20:17:42.886Z,31.60
2018-06-10T20:20:11.660Z,31.60
2018-06-10T20:22:40.342Z,31.50
2018-06-10T20:25:08.993Z,31.50
2018-06-10T20:27:38.215Z,31.40
2018-06-10T20:30:06.815Z,31.30
2018-06-10T20:32:35.188Z,31.30
2018-06-10T20:35:04.248Z,31.20
2018-06-10T20:37:32.931Z,31.20
2018-06-10T20:40:01.377Z,31.10
2018-06-10T20:42:29.920Z,31.10
2018-06-10T20:44:58.485Z,31.10
2018-06-10T20:47:26.920Z,31.00
2018-06-10T20:49:55.253Z,30.90
2018-06-10T20:52:23.652Z,30.90
2018-06-10T20:54:52.341Z,30.90
2018-06-10T20:57:20.840Z,30.80
2018-06-10T20:59:49.245Z,30.70
2018-06-10T21:02:17.856Z,30.70
2018-06-10T21:04:46.379Z,30.70
2018-06-10T21:07:15.058Z,30.60
2018-06-10T21:09:43.864Z,30.50
2018-06-10T21:12:12.424Z,30.50
2018-06-10T21:14:41.064Z,30.50
2018-06-10T21:17:09.734Z,30.40
2018-06-10T21:19:38.528Z,30.40
2018-06-10T21:22:07.068Z,30.40
2018-06-10T21:24:35.627Z,30.40
2018-06-10T21:27:04.115Z,30.40
2018-06-10T21:29:32.528Z,30.30
2018-06-10T21:32:00.948Z,30.30
2018-06-10T21:34:29.411Z,30.30
2018-06-10T21:36:58.753Z,30.30
2018-06-10T21:39:28.583Z,30.20
2018-06-10T21:41:57.123Z,30.20
2018-06-10T21:44:25.680Z,30.20
2018-06-10T21:46:54.190Z,30.10
2018-06-10T21:49:22.569Z,30.10
2018-06-10T21:54:19.211Z,30.00
2018-06-10T21:56:47.959Z,30.00
2018-06-10T21:59:16.471Z,30.00
2018-06-10T22:01:45.160Z,29.90
2018-06-10T22:04:13.698Z,29.90
2018-06-10T22:06:42.372Z,29.90
2018-06-10T22:09:10.946Z,29.80
2018-06-10T22:11:41.774Z,29.80
2018-06-10T22:14:10.592Z,29.80
2018-06-10T22:16:39.294Z,29.70
2018-06-10T22:19:07.827Z,29.70
2018-06-10T22:21:36.209Z,29.70
2018-06-10T22:24:04.681Z,29.60
2018-06-10T22:26:33.115Z,29.60
2018-06-10T22:29:01.494Z,29.60
2018-06-10T22:31:29.992Z,29.50
2018-06-10T22:33:58.343Z,29.50
2018-06-10T22:36:27.261Z,29.50
2018-06-10T22:38:55.740Z,29.40
2018-06-10T22:41:24.280Z,29.40
2018-06-10T22:43:52.791Z,29.30
2018-06-10T22:46:21.251Z,29.30
2018-06-10T22:48:50.253Z,29.30
2018-06-10T22:51:18.604Z,29.20
2018-06-10T22:54:23.443Z,29.20
2018-06-10T22:56:51.828Z,29.10
2018-06-10T22:59:20.182Z,29.10
2018-06-10T23:01:48.596Z,29.10
2018-06-10T23:04:17.066Z,29.00
2018-06-10T23:06:45.730Z,29.00
2018-06-10T23:09:14.170Z,29.00
2018-06-10T23:11:42.564Z,29.00
2018-06-10T23:14:11.009Z,28.90
2018-06-10T23:16:39.465Z,28.90
2018-06-10T23:19:07.941Z,28.90
2018-06-10T23:21:36.353Z,28.80
2018-06-10T23:24:04.745Z,28.80
2018-06-10T23:26:33.072Z,28.80
2018-06-10T23:29:01.351Z,28.70
2018-06-10T23:31:29.943Z,28.70
2018-06-10T23:33:58.307Z,28.60
2018-06-10T23:36:26.690Z,28.60
2018-06-10T23:38:55.011Z,28.50
2018-06-10T23:41:23.431Z,28.50
2018-06-10T23:43:51.791Z,28.50
2018-06-10T23:46:20.214Z,28.40
2018-06-10T23:48:48.514Z,28.40
2018-06-10T23:51:16.952Z,28.40
2018-06-10T23:53:45.784Z,28.30
2018-06-10T23:56:14.231Z,28.30
2018-06-10T23:58:42.569Z,28.30
